This is the latest recevied weather packets stored in our database for station/object HB9SZU-7. If no packets are shown the sender has not sent any weather packets the latest 10 day(s).
| Time | Temp. | Humidity | Pressure | Rain* | Wind** | Luminosity | Snow |
|---|---|---|---|---|---|---|---|
| 1777762190 | 13.33° C | 56% | 941.6 hPa | - | - | - | - |
| 1777761230 | 13.33° C | 56% | 941.6 hPa | - | - | - | - |
| 1777760270 | 13.33° C | 56% | 941.6 hPa | - | - | - | - |
| 1777759309 | 13.33° C | 56% | 941.6 hPa | - | - | - | - |
| 1777758350 | 13.33° C | 56% | 941.6 hPa | - | - | - | - |
| 1777757390 | 13.33° C | 56% | 941.6 hPa | - | - | - | - |
| 1777756430 | 13.33° C | 56% | 941.6 hPa | - | - | - | - |
| 1777755470 | 13.33° C | 56% | 941.6 hPa | - | - | - | - |
| 1777754509 | 13.89° C | 56% | 941.6 hPa | - | - | - | - |
| 1777753550 | 13.89° C | 56% | 941.5 hPa | - | - | - | - |
| 1777752589 | 13.89° C | 56% | 941.5 hPa | - | - | - | - |
| 1777751629 | 14.44° C | 56% | 941.5 hPa | - | - | - | - |
| 1777750669 | 14.44° C | 56% | 941.4 hPa | - | - | - | - |
| 1777749709 | 14.44° C | 56% | 941.5 hPa | - | - | - | - |
| 1777748749 | 16.67° C | 53% | 940.9 hPa | - | - | - | - |
| 1777747790 | 16.67° C | 53% | 940.9 hPa | - | - | - | - |
| 1777746829 | 16.67° C | 53% | 940.9 hPa | - | - | - | - |
| 1777745869 | 16.67° C | 53% | 940.8 hPa | - | - | - | - |
| 1777744909 | 16.67° C | 52% | 940.8 hPa | - | - | - | - |
| 1777743949 | 17.22° C | 52% | 940.6 hPa | - | - | - | - |
| 1777742989 | 17.22° C | 52% | 940.6 hPa | - | - | - | - |
| 1777742029 | 17.22° C | 51% | 940.6 hPa | - | - | - | - |
| 1777741069 | 17.78° C | 50% | 940.6 hPa | - | - | - | - |
| 1777740110 | 17.78° C | 50% | 940.7 hPa | - | - | - | - |
| 1777739150 | 17.78° C | 50% | 940.8 hPa | - | - | - | - |
* Rain since midnight (hover to see other rain measurements)
** Current wind speed in m/s (hover to see current wind gust speed)